Time;durP1;ratioP1;P1;durP2;ratioP2;P2;SDS_P1;SDS_P2;PMS_P1;PMS_P2;Temp;Humidity;BMP_temperature;BMP_pressure;BME280_temperature;BME280_humidity;BME280_pressure;Samples;Min_cycle;Max_cycle;Signal;HPM_P1;HPM_P2
2021/12/30 00:05:43;;;;;;;;;;;;;;;;;;;;;
2021/12/30 00:08:45;;;;;;;;;;;;;;;;;;;;;
2021/12/30 00:14:40;;;;;;;0.73;0.70;;;;;;;5.82;84.04;92293.44;4879039;29;20056;-91
2021/12/30 00:21:09;;;;;;;;;;;;;;;;;;;;;
2021/12/30 00:23:59;;;;;;;;;;;;;;;;;;;;;
2021/12/30 00:27:33;;;;;;;1.23;0.98;;;;;;;6.02;85.16;92368.81;4882540;29;20132;-91
2021/12/30 00:30:38;;;;;;;;;;;;;;;;;;;;;
2021/12/30 00:36:57;;;;;;;1.33;0.95;;;;;;;5.75;86.04;92350.84;4897026;29;20055;-90
2021/12/30 00:39:53;;;;;;;1.15;0.80;;;;;;;5.72;85.80;92332.41;4894313;29;20128;-92
2021/12/30 00:45:59;;;;;;;;;;;;;;;;;;;;;
2021/12/30 00:49:01;;;;;;;0.95;0.75;;;;;;;5.87;85.04;92347.22;4897093;29;20044;-90
2021/12/30 00:55:06;;;;;;;0.88;0.82;;;;;;;5.70;84.79;92322.28;4883281;29;20128;-91
2021/12/30 00:57:56;;;;;;;;;;;;;;;;;;;;;
2021/12/30 01:01:06;;;;;;;;;;;;;;;;;;;;;
2021/12/30 01:04:15;;;;;;;1.10;0.90;;;;;;;5.70;84.66;92350.06;4885820;29;20045;-91
2021/12/30 01:07:01;;;;;;;0.60;0.60;;;;;;;5.55;84.36;92319.66;4883214;29;20144;-91
2021/12/30 01:10:05;;;;;;;;;;;;;;;;;;;;;
2021/12/30 01:13:06;;;;;;;1.63;0.80;;;;;;;5.73;84.89;92315.78;4908514;29;20024;-96
2021/12/30 01:16:02;;;;;;;0.82;0.70;;;;;;;5.97;84.54;92316.84;4923027;29;20049;-92
2021/12/30 01:22:19;;;;;;;1.05;0.80;;;;;;;6.09;82.82;92337.34;4895208;29;20045;-91
2021/12/30 01:25:12;;;;;;;;;;;;;;;;;;;;;
2021/12/30 01:28:11;;;;;;;1.13;0.80;;;;;;;5.83;83.57;92306.19;4900467;29;20491;-91
2021/12/30 01:31:25;;;;;;;;;;;;;;;;;;;;;
2021/12/30 01:34:14;;;;;;;;;;;;;;;;;;;;;
2021/12/30 01:37:01;;;;;;;1.00;0.75;;;;;;;5.88;83.00;92308.00;4884891;29;20139;-91
2021/12/30 01:40:40;;;;;;;;;;;;;;;;;;;;;
2021/12/30 01:43:54;;;;;;;;;;;;;;;;;;;;;
2021/12/30 01:47:09;;;;;;;1.80;0.85;;;;;;;6.05;81.18;92329.28;4880448;29;20041;-91
2021/12/30 01:53:30;;;;;;;2.03;1.00;;;;;;;6.09;82.14;92339.97;4902906;29;20053;-92
2021/12/30 01:59:18;;;;;;;0.77;0.63;;;;;;;6.11;81.85;92369.06;4895254;29;20499;-90
2021/12/30 02:02:01;;;;;;;0.70;0.60;;;;;;;6.05;81.81;92364.91;4896154;29;20151;-90
2021/12/30 02:05:30;;;;;;;0.70;0.70;;;;;;;6.37;80.52;92415.81;4883253;29;20041;-90
2021/12/30 02:08:25;;;;;;;1.13;0.80;;;;;;;6.09;79.56;92358.16;4882106;29;20055;-90
2021/12/30 02:11:36;;;;;;;0.60;0.60;;;;;;;6.18;78.46;92363.59;4885632;29;20052;-94
2021/12/30 02:14:46;;;;;;;0.63;0.60;;;;;;;6.41;76.05;92362.25;4886244;29;20063;-90
2021/12/30 02:17:55;;;;;;;0.40;0.40;;;;;;;7.26;72.38;92388.28;4882385;29;20045;-91
2021/12/30 02:24:29;;;;;;;0.55;0.50;;;;;;;8.18;67.96;92401.81;4899518;29;20060;-90
2021/12/30 02:27:28;;;;;;;0.95;0.60;;;;;;;8.10;69.09;92369.25;4898875;29;20128;-91
2021/12/30 02:33:50;;;;;;;;;;;;;;;;;;;;;
2021/12/30 02:36:26;;;;;;;0.80;0.57;;;;;;;8.07;69.19;92401.88;4898945;29;20036;-91
2021/12/30 02:39:16;;;;;;;0.50;0.50;;;;;;;8.28;68.78;92419.97;4897807;29;20044;-90
2021/12/30 02:45:26;;;;;;;0.43;0.40;;;;;;;8.33;67.64;92399.06;4886501;29;20080;-90
2021/12/30 02:48:55;;;;;;;;;;;;;;;;;;;;;
2021/12/30 02:52:04;;;;;;;1.05;0.60;;;;;;;8.91;64.21;92416.56;4898430;29;20036;-91
2021/12/30 02:55:04;;;;;;;1.35;1.00;;;;;;;8.63;65.52;92363.34;4904604;29;20505;-90
2021/12/30 02:57:46;;;;;;;;;;;;;;;;;;;;;
2021/12/30 03:01:00;;;;;;;;;;;;;;;;;;;;;
2021/12/30 03:03:55;;;;;;;0.50;0.50;;;;;;;8.05;66.77;92359.66;4896828;29;20063;-90
2021/12/30 03:06:39;;;;;;;1.42;1.00;;;;;;;8.24;69.18;92398.09;4876947;29;20143;-91
2021/12/30 03:12:23;;;;;;;0.55;0.55;;;;;;;7.97;66.49;92386.31;4894479;29;20143;-92
2021/12/30 03:15:17;;;;;;;;;;;;;;;;;;;;;
2021/12/30 03:18:39;;;;;;;;;;;;;;;;;;;;;
2021/12/30 03:21:34;;;;;;;1.05;0.70;;;;;;;8.33;64.47;92389.41;4897336;29;20045;-91
2021/12/30 03:25:02;;;;;;;;;;;;;;;;;;;;;
2021/12/30 03:28:21;;;;;;;0.43;0.43;;;;;;;8.64;63.37;92414.47;4898472;29;20051;-91
2021/12/30 03:31:02;;;;;;;2.65;1.52;;;;;;;8.39;65.63;92392.75;4898737;29;20045;-90
2021/12/30 03:34:22;;;;;;;3.05;1.50;;;;;;;8.08;70.05;92395.63;4881362;29;20048;-90
2021/12/30 03:37:39;;;;;;;;;;;;;;;;;;;;;
2021/12/30 03:40:56;;;;;;;1.48;0.85;;;;;;;7.53;70.53;92397.53;4886275;29;20040;-91
2021/12/30 03:51:04;;;;;;;;;;;;;;;;;;;;;
2021/12/30 03:54:18;;;;;;;4.80;1.30;;;;;;;8.50;67.65;92471.75;4904636;29;20502;-91
2021/12/30 03:56:59;;;;;;;;;;;;;;;;;;;;;
2021/12/30 03:59:49;;;;;;;1.23;0.50;;;;;;;8.39;64.51;92447.53;4897648;29;20049;-91
2021/12/30 04:02:56;;;;;;;;;;;;;;;;;;;;;
2021/12/30 04:05:45;;;;;;;;;;;;;;;;;;;;;
2021/12/30 04:11:39;;;;;;;0.60;0.57;;;;;;;8.45;63.62;92469.94;4900808;29;20116;-90
2021/12/30 04:17:47;;;;;;;;;;;;;;;;;;;;;
2021/12/30 04:20:42;;;;;;;1.40;0.85;;;;;;;8.20;66.43;92428.41;4902014;29;20049;-90
2021/12/30 04:23:20;;;;;;;1.30;0.50;;;;;;;8.06;66.45;92433.41;4871479;29;20048;-90
2021/12/30 04:26:07;;;;;;;0.50;0.50;;;;;;;7.96;65.49;92430.91;4885094;29;20048;-90
2021/12/30 04:28:58;;;;;;;;;;;;;;;;;;;;;
2021/12/30 04:32:00;;;;;;;;;;;;;;;;;;;;;
2021/12/30 04:34:49;;;;;;;;;;;;;;;;;;;;;
2021/12/30 04:37:57;;;;;;;0.50;0.50;;;;;;;7.78;65.74;92456.53;4913905;29;20048;-91
2021/12/30 04:40:54;;;;;;;1.38;0.88;;;;;;;8.16;67.12;92479.53;4883392;29;20060;-91
2021/12/30 04:44:12;;;;;;;;;;;;;;;;;;;;;
2021/12/30 04:50:26;;;;;;;;;;;;;;;;;;;;;
2021/12/30 04:53:50;;;;;;;2.00;1.00;;;;;;;7.47;70.04;92471.53;4903195;29;20056;-95
2021/12/30 04:56:47;;;;;;;;;;;;;;;;;;;;;
2021/12/30 04:59:26;;;;;;;1.50;1.00;;;;;;;7.32;70.42;92489.81;4896477;29;20547;-91
2021/12/30 05:05:33;;;;;;;0.98;0.90;;;;;;;7.23;70.50;92492.97;4882604;29;20374;-90
2021/12/30 05:08:14;;;;;;;0.75;0.75;;;;;;;7.19;70.24;92502.34;4880887;29;20029;-90
2021/12/30 05:11:26;;;;;;;0.68;0.68;;;;;;;7.38;70.79;92536.41;4890819;29;20048;-91
2021/12/30 05:14:12;;;;;;;;;;;;;;;;;;;;;
2021/12/30 05:17:02;;;;;;;1.38;0.90;;;;;;;6.99;70.71;92499.78;4896719;29;20073;-90
2021/12/30 05:23:24;;;;;;;0.95;0.77;;;;;;;7.27;70.49;92560.91;4887625;29;20485;-91
2021/12/30 05:26:32;;;;;;;2.38;0.93;;;;;;;7.00;70.70;92525.56;4884600;29;20450;-91
2021/12/30 05:29:34;;;;;;;0.80;0.70;;;;;;;7.05;70.48;92540.38;4899977;29;20040;-91
2021/12/30 05:32:42;;;;;;;0.95;0.70;;;;;;;7.21;70.24;92573.16;4899380;29;20044;-91
2021/12/30 05:38:37;;;;;;;1.38;0.68;;;;;;;6.74;70.12;92509.19;4899822;29;20049;-90
2021/12/30 05:45:14;;;;;;;0.80;0.60;;;;;;;7.18;69.29;92568.50;4882921;29;20052;-90
2021/12/30 05:48:24;;;;;;;0.90;0.68;;;;;;;7.19;69.18;92559.63;4900122;29;20161;-92
2021/12/30 05:55:35;;;;;;;;;;;;;;;;;;;;;
2021/12/30 05:58:38;;;;;;;0.80;0.63;;;;;;;7.35;69.56;92570.78;4914522;29;20132;-90
2021/12/30 06:01:20;;;;;;;1.33;0.90;;;;;;;7.28;69.26;92560.66;4902100;29;20053;-90
2021/12/30 06:04:07;;;;;;;0.47;0.47;;;;;;;7.56;69.02;92596.78;4917598;29;20036;-90
2021/12/30 06:10:50;;;;;;;;;;;;;;;;;;;;;
2021/12/30 06:13:40;;;;;;;0.63;0.63;;;;;;;7.61;68.77;92602.78;4918227;29;20052;-90
2021/12/30 06:16:26;;;;;;;0.60;0.60;;;;;;;7.42;68.73;92573.91;4903088;29;20054;-90
2021/12/30 06:19:13;;;;;;;1.52;0.60;;;;;;;7.42;68.29;92573.91;4889908;29;20044;-91
2021/12/30 06:25:37;;;;;;;1.00;0.65;;;;;;;7.79;68.08;92629.31;4909798;29;20155;-92
2021/12/30 06:29:18;;;;;;;0.60;0.60;;;;;;;7.57;68.12;92591.31;4903835;29;20054;-91
2021/12/30 06:32:18;;;;;;;0.60;0.60;;;;;;;7.50;68.25;92580.41;4903563;29;20040;-91
2021/12/30 06:35:35;;;;;;;;;;;;;;;;;;;;;
2021/12/30 06:38:25;;;;;;;0.77;0.60;;;;;;;7.90;66.30;92591.72;4918009;29;20044;-91
2021/12/30 06:41:38;;;;;;;0.60;0.50;;;;;;;8.19;65.81;92597.09;4904262;29;20052;-91
2021/12/30 06:44:38;;;;;;;0.50;0.50;;;;;;;8.36;65.02;92601.19;4887532;29;20040;-91
2021/12/30 06:47:49;;;;;;;;;;;;;;;;;;;;;
2021/12/30 06:51:44;;;;;;;;;;;;;;;;;;;;;
2021/12/30 06:57:44;;;;;;;0.50;0.50;;;;;;;8.57;64.89;92613.09;4905557;29;20062;-91
2021/12/30 07:01:01;;;;;;;1.20;0.80;;;;;;;8.73;65.18;92624.22;4892688;29;20143;-91
2021/12/30 07:03:50;;;;;;;;;;;;;;;;;;;;;
2021/12/30 07:07:09;;;;;;;;;;;;;;;;;;;;;
2021/12/30 07:09:58;;;;;;;1.55;0.80;;;;;;;8.30;66.64;92647.38;4917812;29;20213;-90
2021/12/30 07:12:36;;;;;;;0.98;0.70;;;;;;;8.20;67.00;92655.25;4900645;29;20063;-91
2021/12/30 07:15:50;;;;;;;;;;;;;;;;;;;;;
2021/12/30 07:18:40;;;;;;;2.05;0.82;;;;;;;8.29;66.02;92654.44;4900350;29;20051;-90
2021/12/30 07:21:52;;;;;;;1.33;0.47;;;;;;;8.47;65.61;92668.72;4890533;29;20040;-90
2021/12/30 07:25:15;;;;;;;;;;;;;;;;;;;;;
2021/12/30 07:28:04;;;;;;;0.55;0.50;;;;;;;8.91;64.56;92701.91;4917451;29;20040;-91
2021/12/30 07:31:19;;;;;;;0.55;0.52;;;;;;;9.17;63.96;92712.97;4900515;29;20385;-90
2021/12/30 07:34:18;;;;;;;0.50;0.50;;;;;;;9.49;63.02;92737.06;4916803;29;20067;-90
2021/12/30 07:37:18;;;;;;;;;;;;;;;;;;;;;
2021/12/30 07:40:07;;;;;;;0.50;0.50;;;;;;;9.93;60.87;92689.09;4893856;29;20075;-92
2021/12/30 07:43:31;;;;;;;;;;;;;;;;;;;;;
2021/12/30 07:46:35;;;;;;;;;;;;;;;;;;;;;
2021/12/30 07:49:24;;;;;;;;;;;;;;;;;;;;;
2021/12/30 07:52:59;;;;;;;;;;;;;;;;;;;;;
2021/12/30 07:55:27;;;;;;;0.93;0.70;;;;;;;12.58;54.21;92772.22;4910943;29;20126;-88
2021/12/30 07:58:33;;;;;;;0.50;0.50;;;;;;;12.89;53.43;92756.66;4908778;29;20052;-88
2021/12/30 08:04:45;;;;;;;0.60;0.60;;;;;;;15.00;48.52;92750.66;4922617;29;20047;-87
2021/12/30 08:07:32;;;;;;;;;;;;;;;;;;;;;
2021/12/30 08:10:28;;;;;;;;;;;;;;;;;;;;;
2021/12/30 08:13:14;;;;;;;0.77;0.50;;;;;;;18.57;41.01;92753.75;4923652;29;20048;-88
2021/12/30 08:15:56;;;;;;;0.40;0.40;;;;;;;19.82;39.14;92738.25;4891648;29;20414;-88
2021/12/30 08:18:57;;;;;;;0.50;0.50;;;;;;;21.30;36.16;92741.63;4908869;29;20068;-88
2021/12/30 08:21:32;;;;;;;0.47;0.47;;;;;;;22.16;32.34;92751.41;4908224;29;20036;-89
2021/12/30 08:27:22;;;;;;;0.82;0.70;;;;;;;23.37;33.02;92743.97;4925933;28;20047;-92
2021/12/30 08:29:58;;;;;;;0.55;0.55;;;;;;;23.54;31.35;92752.59;4938360;28;20103;-89
2021/12/30 08:36:00;;;;;;;1.77;0.90;;;;;;;24.25;29.41;92761.53;4907964;29;20040;-88
2021/12/30 08:53:08;;;;;;;3.77;2.17;;;;;;;23.49;31.58;92812.44;4900015;29;20044;-90
2021/12/30 09:00:12;;;;;;;4.53;2.55;;;;;;;21.90;33.39;92833.88;4922741;29;20123;-90
2021/12/30 09:02:40;;;;;;;4.40;2.15;;;;;;;21.39;35.23;92819.41;4904325;29;20059;-90
2021/12/30 09:05:18;;;;;;;4.18;2.20;;;;;;;21.29;36.07;92833.25;4905371;29;20044;-90
2021/12/30 09:08:06;;;;;;;4.40;2.08;;;;;;;20.68;38.34;92817.66;4908011;29;20043;-90
2021/12/30 09:22:46;;;;;;;;;;;;;;;24.66;31.18;92868.66;4885050;29;20334;-90
2021/12/30 09:34:00;;;;;;;;;;;;;;;;;;;;;
2021/12/30 09:55:30;;;;;;;;;;;;;;;;;;;;;
2021/12/30 10:03:07;;;;;;;5.53;3.45;;;;;;;19.95;40.09;92891.97;4824309;29;20057;-90
2021/12/30 10:10:09;;;;;;;;;;;;;;;;;;;;;
2021/12/30 10:13:49;;;;;;;8.90;4.35;;;;;;;19.00;43.08;92922.28;4824757;29;20054;-89
2021/12/30 10:17:04;;;;;;;7.15;4.05;;;;;;;19.52;42.46;92873.91;4798564;29;20050;-90
2021/12/30 10:27:07;;;;;;;4.65;2.40;;;;;;;20.97;36.79;92870.50;4842981;29;20423;-90
2021/12/30 10:34:04;;;;;;;7.25;4.35;;;;;;;20.75;39.22;92926.91;4881858;29;20044;-90
2021/12/30 10:44:05;;;;;;;8.70;4.07;;;;;;;20.97;38.06;92875.03;4845659;29;20455;-90
2021/12/30 10:50:00;;;;;;;1.88;1.10;;;;;;;21.80;36.10;92920.47;4914491;29;20097;-80
2021/12/30 10:52:30;;;;;;;6.85;4.25;;;;;;;21.24;36.90;92905.38;4898971;29;20029;-78
2021/12/30 10:55:18;;;;;;;8.40;3.60;;;;;;;20.82;38.68;92873.13;4884397;29;20049;-82
2021/12/30 10:57:44;;;;;;;6.53;3.72;;;;;;;21.23;38.35;92903.06;4915685;29;20043;-81
2021/12/30 11:00:34;;;;;;;7.22;4.03;;;;;;;19.72;39.49;92896.19;4898663;29;20032;-81
2021/12/30 11:06:19;;;;;;;5.80;3.30;;;;;;;19.54;38.95;92874.34;4919343;29;20040;-80
2021/12/30 11:08:47;;;;;;;5.18;3.00;;;;;;;19.82;38.02;92919.66;4901461;29;20093;-79
2021/12/30 11:11:31;;;;;;;6.90;3.90;;;;;;;19.36;40.14;92908.31;4883277;29;20047;-78
2021/12/30 11:14:36;;;;;;;6.82;3.97;;;;;;;19.24;40.99;92918.91;4902582;29;20046;-80
2021/12/30 11:17:11;;;;;;;7.70;3.60;;;;;;;18.69;41.21;92931.44;4903092;29;20044;-78
2021/12/30 11:20:04;;;;;;;6.32;3.70;;;;;;;18.54;41.85;92932.03;4900737;29;20111;-80
2021/12/30 11:22:38;;;;;;;5.13;2.90;;;;;;;18.54;42.34;92932.81;4916573;29;20056;-80
2021/12/30 11:25:09;;;;;;;5.40;3.10;;;;;;;19.09;42.11;92930.94;4900333;29;20084;-80
2021/12/30 11:27:38;;;;;;;6.15;3.42;;;;;;;19.07;41.06;92927.81;4917245;29;20044;-80
2021/12/30 11:30:09;;;;;;;6.57;3.80;;;;;;;18.42;42.28;92930.88;4900225;29;20032;-80
2021/12/30 11:32:36;;;;;;;5.70;3.38;;;;;;;17.69;43.77;92939.84;4902607;29;20044;-80
2021/12/30 11:35:04;;;;;;;7.85;3.65;;;;;;;17.79;44.93;92946.66;4916208;29;20037;-79
2021/12/30 11:37:31;;;;;;;7.00;2.92;;;;;;;17.97;42.24;92930.69;4899079;29;20032;-81
2021/12/30 11:40:01;;;;;;;6.03;3.00;;;;;;;18.33;42.83;92926.72;4883895;29;20036;-81
2021/12/30 11:42:37;;;;;;;6.32;3.35;;;;;;;18.81;42.18;92920.91;4898066;29;20052;-81
2021/12/30 11:45:40;;;;;;;4.72;2.72;;;;;;;18.86;41.36;92918.03;4896506;29;20090;-81
2021/12/30 11:51:14;;;;;;;7.60;3.67;;;;;;;18.80;42.43;92927.31;4897198;29;20040;-80
2021/12/30 11:53:40;;;;;;;5.60;2.80;;;;;;;19.35;40.68;92926.13;4895266;29;20029;-80
2021/12/30 11:56:18;;;;;;;6.25;3.67;;;;;;;18.98;41.69;92925.28;4915726;29;20078;-81
2021/12/30 11:58:48;;;;;;;9.25;5.10;;;;;;;18.53;43.58;92928.63;4913348;29;20473;-80
2021/12/30 12:05:43;;;;;;;5.57;2.83;;;;;;;18.65;40.61;92927.88;4914631;29;20055;-81
2021/12/30 12:08:14;;;;;;;4.82;2.55;;;;;;;19.27;39.99;92916.41;4913288;29;20105;-80
2021/12/30 12:10:44;;;;;;;6.75;2.92;;;;;;;19.06;40.28;92926.28;4913980;29;20072;-80
2021/12/30 12:13:35;;;;;;;4.20;2.33;;;;;;;19.45;40.40;92926.78;4914747;29;20119;-80
2021/12/30 12:16:38;;;;;;;6.28;3.47;;;;;;;20.15;39.45;92922.19;4914924;29;20052;-81
2021/12/30 12:19:09;;;;;;;6.57;3.75;;;;;;;19.76;39.36;92915.66;4916097;29;20063;-80
2021/12/30 12:21:40;;;;;;;4.93;3.08;;;;;;;19.26;39.71;92911.41;4912274;29;20040;-80
2021/12/30 12:27:40;;;;;;;5.15;2.13;;;;;;;20.17;38.39;92909.31;4898298;29;20113;-79
2021/12/30 12:33:31;;;;;;;3.75;2.03;;;;;;;20.96;37.76;92911.53;4898718;29;20044;-79
2021/12/30 12:35:58;;;;;;;2.95;1.70;;;;;;;21.24;36.82;92910.72;4899760;29;20037;-80
2021/12/30 12:41:56;;;;;;;7.32;4.72;;;;;;;20.50;39.18;92915.56;4897426;29;20048;-80
2021/12/30 12:48:20;;;;;;;7.55;3.70;;;;;;;19.99;40.42;92915.97;4898679;29;20061;-79
2021/12/30 12:51:00;;;;;;;7.60;4.70;;;;;;;20.46;39.51;92915.44;4900801;29;20035;-81
2021/12/30 12:53:28;;;;;;;8.32;4.80;;;;;;;20.48;39.33;92915.88;4885288;29;20043;-80
2021/12/30 12:56:06;;;;;;;7.95;4.78;;;;;;;20.54;39.38;92914.53;4915940;29;20048;-80
2021/12/30 12:58:53;;;;;;;7.18;4.32;;;;;;;20.90;39.00;92914.78;4915422;29;20068;-80
2021/12/30 13:01:24;;;;;;;8.38;4.70;;;;;;;20.93;38.42;92922.84;4917022;29;20036;-80
2021/12/30 13:03:52;;;;;;;8.32;5.25;;;;;;;19.89;39.84;92924.41;4900586;29;20040;-80
2021/12/30 13:06:22;;;;;;;9.02;5.28;;;;;;;19.17;40.98;92931.97;4916581;29;20028;-80
2021/12/30 13:08:49;;;;;;;10.05;5.00;;;;;;;18.07;42.52;92933.75;4917884;29;20521;-79
2021/12/30 13:11:37;;;;;;;12.40;5.55;;;;;;;17.96;43.50;92934.44;4916260;29;20035;-79
2021/12/30 13:14:15;;;;;;;7.47;5.00;;;;;;;18.34;42.59;92931.72;4913848;29;20032;-80
2021/12/30 13:16:42;;;;;;;11.02;5.10;;;;;;;18.51;42.33;92936.88;4912662;29;20048;-80
2021/12/30 13:19:19;;;;;;;8.70;5.03;;;;;;;18.61;42.34;92932.28;4913023;29;20033;-80
2021/12/30 13:21:45;;;;;;;8.73;5.65;;;;;;;18.65;41.88;92930.53;4897894;29;20040;-80
2021/12/30 13:24:34;;;;;;;8.50;5.47;;;;;;;18.61;41.99;92933.06;4899072;29;20043;-80
2021/12/30 13:27:13;;;;;;;10.32;5.45;;;;;;;17.65;43.96;92938.94;4914083;29;20049;-79
2021/12/30 13:29:40;;;;;;;10.73;5.95;;;;;;;17.01;45.17;92933.72;4897510;29;20103;-79
2021/12/30 13:32:27;;;;;;;8.63;4.90;;;;;;;17.16;45.40;92938.50;4909866;29;20483;-79
2021/12/30 13:35:03;;;;;;;9.63;5.40;;;;;;;16.46;46.90;92940.44;4894732;29;20060;-79
2021/12/30 13:37:33;;;;;;;10.18;5.25;;;;;;;16.20;47.23;92937.78;4906590;29;20456;-80
2021/12/30 13:40:00;;;;;;;8.95;5.47;;;;;;;16.14;47.49;92949.56;4913858;29;20032;-79
2021/12/30 13:42:29;;;;;;;8.05;5.25;;;;;;;16.35;46.74;92945.25;4896533;29;20030;-79
2021/12/30 13:44:59;;;;;;;8.82;5.30;;;;;;;16.69;47.08;92948.97;4912534;29;20040;-79
2021/12/30 13:47:35;;;;;;;9.52;4.97;;;;;;;16.89;46.02;92954.72;4884399;29;20056;-79
2021/12/30 13:50:07;;;;;;;9.93;4.95;;;;;;;16.59;45.96;92954.56;4904924;29;20056;-79
2021/12/30 13:52:37;;;;;;;10.07;4.70;;;;;;;16.74;46.12;92956.72;4906476;29;20131;-79
2021/12/30 13:55:27;;;;;;;9.25;4.63;;;;;;;17.22;45.29;92961.03;4913463;29;20044;-78
2021/12/30 13:58:16;;;;;;;9.00;4.47;;;;;;;17.14;44.72;92966.38;4901760;29;20052;-79
2021/12/30 14:00:59;;;;;;;8.23;4.10;;;;;;;17.16;44.85;92964.94;4910346;29;20045;-78
2021/12/30 14:03:30;;;;;;;6.75;4.22;;;;;;;17.28;44.59;92965.06;4895347;29;20040;-78
2021/12/30 14:06:17;;;;;;;9.63;4.80;;;;;;;17.32;44.49;92972.38;4895832;29;20124;-78
2021/12/30 14:09:03;;;;;;;6.72;3.85;;;;;;;17.64;44.41;92961.22;4896107;29;20036;-78
2021/12/30 14:11:32;;;;;;;7.10;4.05;;;;;;;17.62;44.07;92963.41;4912728;29;20052;-78
2021/12/30 14:13:59;;;;;;;5.55;2.85;;;;;;;17.13;43.46;92973.50;4895430;29;20023;-78
2021/12/30 14:16:33;;;;;;;5.20;3.05;;;;;;;16.72;44.40;92972.13;4912511;29;20037;-78
2021/12/30 14:19:00;;;;;;;5.35;2.72;;;;;;;16.54;45.23;92975.88;4912577;29;20036;-79
2021/12/30 14:21:29;;;;;;;4.97;2.85;;;;;;;16.12;45.57;92970.22;4913179;29;20059;-78
2021/12/30 14:24:07;;;;;;;6.43;3.03;;;;;;;16.09;46.01;92981.41;4912243;29;20042;-78
2021/12/30 14:26:34;;;;;;;7.60;2.95;;;;;;;16.19;47.17;92981.13;4912737;29;20036;-78
2021/12/30 14:29:08;;;;;;;7.65;3.30;;;;;;;16.35;47.67;92982.22;4912255;29;20358;-79
2021/12/30 14:31:36;;;;;;;5.63;3.03;;;;;;;16.40;47.51;92987.34;4912400;29;20073;-79
2021/12/30 14:34:22;;;;;;;5.05;2.88;;;;;;;16.17;46.54;92985.94;4912265;29;20036;-79
2021/12/30 14:37:01;;;;;;;9.32;2.67;;;;;;;15.99;46.50;92985.91;4884312;29;20193;-78
2021/12/30 14:39:42;;;;;;;5.07;2.30;;;;;;;16.30;46.09;92995.59;4894515;29;20096;-79
2021/12/30 14:42:24;;;;;;;6.18;2.50;;;;;;;16.29;45.82;92998.53;4893862;29;20029;-79
2021/12/30 14:44:56;;;;;;;4.47;2.72;;;;;;;16.00;47.67;93002.50;4892545;29;20037;-79
2021/12/30 14:47:22;;;;;;;;;;;;;;;15.77;48.42;93004.47;4906145;29;20060;-79
2021/12/30 14:50:27;;;;;;;7.85;3.13;;;;;;;15.45;49.62;93006.31;4912498;29;19931;-79
2021/12/30 14:52:59;;;;;;;4.38;2.05;;;;;;;15.13;51.91;93005.53;4871939;29;20103;-80
2021/12/30 14:55:30;;;;;;;4.70;2.25;;;;;;;14.84;53.28;93010.44;4872134;29;20042;-79
2021/12/30 14:58:00;;;;;;;5.50;2.70;;;;;;;14.60;53.79;93016.78;4867297;29;20048;-79
2021/12/30 15:00:29;;;;;;;8.70;3.10;;;;;;;14.35;53.69;93010.94;4896848;29;20043;-79
2021/12/30 15:02:56;;;;;;;9.60;5.50;;;;;;;13.97;54.18;93020.19;4909489;29;20482;-79
2021/12/30 15:05:23;;;;;;;9.38;5.25;;;;;;;13.53;55.19;93024.91;4899129;29;20056;-79
2021/12/30 15:07:49;;;;;;;6.90;3.80;;;;;;;13.32;56.00;93016.63;4895538;29;20387;-79
2021/12/30 15:10:18;;;;;;;6.88;3.60;;;;;;;13.25;56.65;93026.72;4895623;29;20120;-78
2021/12/30 15:12:46;;;;;;;10.27;4.78;;;;;;;12.98;57.64;93025.56;4887891;29;20085;-79
2021/12/30 15:15:14;;;;;;;9.93;4.82;;;;;;;12.79;58.31;93040.56;4895740;29;20048;-79
2021/12/30 15:17:41;;;;;;;8.65;4.78;;;;;;;12.68;58.48;93040.72;4894614;29;20037;-78
2021/12/30 15:20:10;;;;;;;8.15;4.75;;;;;;;12.59;59.00;93039.81;4900129;29;20055;-79
2021/12/30 15:22:37;;;;;;;8.20;4.80;;;;;;;12.46;59.17;93040.50;4919250;29;20087;-79
2021/12/30 15:25:03;;;;;;;8.63;4.88;;;;;;;12.36;59.87;93053.75;4906610;29;20028;-79
2021/12/30 15:27:31;;;;;;;8.32;4.47;;;;;;;12.26;60.23;93052.84;4911916;29;20047;-79
2021/12/30 15:29:57;;;;;;;6.63;3.80;;;;;;;12.21;60.75;93046.88;4914189;29;20028;-79
2021/12/30 15:32:23;;;;;;;7.00;2.90;;;;;;;12.21;61.09;93050.28;4893585;29;20035;-79
2021/12/30 15:34:52;;;;;;;5.63;3.00;;;;;;;12.15;61.50;93053.25;4889709;29;20036;-79
2021/12/30 15:37:22;;;;;;;5.05;2.33;;;;;;;12.00;61.25;93056.81;4910767;29;20096;-79
2021/12/30 15:39:48;;;;;;;4.25;2.20;;;;;;;11.85;60.54;93055.91;4910412;29;20028;-79
2021/12/30 15:42:14;;;;;;;4.13;2.13;;;;;;;11.78;60.60;93059.94;4913304;29;20068;-80
2021/12/30 15:44:41;;;;;;;6.25;2.70;;;;;;;11.73;60.79;93062.59;4893920;29;20068;-79
2021/12/30 15:47:07;;;;;;;7.45;2.30;;;;;;;11.69;60.92;93062.41;4893842;29;20119;-79
2021/12/30 15:49:35;;;;;;;6.30;2.40;;;;;;;11.57;60.57;93056.75;4897204;29;20063;-79
2021/12/30 15:52:02;;;;;;;3.35;1.90;;;;;;;11.45;60.77;93065.75;4908591;29;20044;-79
2021/12/30 15:54:27;;;;;;;4.10;1.70;;;;;;;11.38;60.52;93067.94;4902940;29;20055;-79
2021/12/30 15:56:53;;;;;;;3.65;1.60;;;;;;;11.28;59.86;93060.19;4891950;29;20037;-79
2021/12/30 15:59:20;;;;;;;11.68;6.90;;;;;;;11.29;60.91;93063.56;4910187;29;20084;-79
2021/12/30 16:01:46;;;;;;;5.53;3.45;;;;;;;11.20;60.77;93063.38;4913273;29;20025;-79
2021/12/30 16:04:17;;;;;;;6.60;2.45;;;;;;;11.09;60.69;93059.28;4914279;29;20044;-79
2021/12/30 16:06:44;;;;;;;3.95;2.17;;;;;;;10.98;60.75;93064.59;4906548;29;20101;-78
2021/12/30 16:09:11;;;;;;;3.67;2.22;;;;;;;10.89;60.88;93061.00;4877019;29;20068;-79
2021/12/30 16:11:37;;;;;;;3.40;2.00;;;;;;;10.90;60.61;93072.25;4898733;29;20036;-82
2021/12/30 16:14:03;;;;;;;4.32;2.30;;;;;;;10.91;60.22;93077.22;4879375;29;20044;-83
2021/12/30 16:16:29;;;;;;;5.60;2.40;;;;;;;10.91;59.95;93079.84;4913005;29;20036;-82
2021/12/30 16:18:55;;;;;;;4.18;1.88;;;;;;;10.87;60.06;93078.03;4916988;29;20055;-83
2021/12/30 16:21:22;;;;;;;3.65;1.77;;;;;;;10.82;59.90;93081.47;4917571;29;20080;-82
2021/12/30 16:23:48;;;;;;;3.97;1.85;;;;;;;10.76;60.14;93082.56;4888869;29;20412;-81
2021/12/30 16:26:13;;;;;;;3.40;1.60;;;;;;;10.73;59.98;93088.34;4897842;29;20100;-82
2021/12/30 16:28:39;;;;;;;2.92;1.55;;;;;;;10.67;59.93;93084.19;4898304;29;20073;-82
2021/12/30 16:31:06;;;;;;;2.10;1.30;;;;;;;10.66;60.03;93085.25;4917815;29;20037;-82
2021/12/30 16:33:32;;;;;;;2.05;1.20;;;;;;;10.64;60.14;93088.13;4881349;29;20579;-82
2021/12/30 16:35:57;;;;;;;1.67;1.10;;;;;;;10.60;60.45;93093.16;4900602;29;20039;-82
2021/12/30 16:38:24;;;;;;;5.70;1.80;;;;;;;10.58;60.58;93097.06;4900741;29;20104;-82
2021/12/30 16:40:55;;;;;;;2.60;1.60;;;;;;;10.53;60.81;93091.88;4917989;29;20040;-82
2021/12/30 16:43:22;;;;;;;1.98;1.30;;;;;;;10.52;60.56;93098.94;4911367;29;20066;-82
2021/12/30 16:45:48;;;;;;;3.67;1.42;;;;;;;10.45;60.83;93098.47;4916419;29;20105;-82
2021/12/30 16:48:15;;;;;;;3.95;2.10;;;;;;;10.52;60.89;93101.56;4927961;29;20052;-81
2021/12/30 16:50:43;;;;;;;4.38;2.70;;;;;;;10.48;60.95;93105.75;4928069;29;20437;-82
2021/12/30 16:53:13;;;;;;;4.50;2.55;;;;;;;10.35;60.95;93099.28;4911092;29;20486;-82
2021/12/30 16:55:39;;;;;;;5.75;3.38;;;;;;;10.34;61.34;93107.41;4904586;29;20044;-82
2021/12/30 16:58:06;;;;;;;7.10;3.53;;;;;;;10.40;61.27;93108.94;4917216;29;20092;-83
2021/12/30 17:00:34;;;;;;;8.73;3.35;;;;;;;10.33;61.22;93103.22;4901022;29;20076;-82
2021/12/30 17:03:02;;;;;;;6.53;3.70;;;;;;;10.27;61.33;93112.09;4909575;29;20052;-81
2021/12/30 17:05:28;;;;;;;6.70;3.00;;;;;;;10.18;61.41;93114.53;4912735;29;20025;-81
2021/12/30 17:07:56;;;;;;;4.20;1.95;;;;;;;10.05;61.32;93102.00;4899372;29;20530;-82
2021/12/30 17:10:22;;;;;;;3.17;1.58;;;;;;;9.99;61.70;93115.09;4900567;29;20422;-83
2021/12/30 17:12:48;;;;;;;2.97;1.77;;;;;;;9.93;61.34;93113.56;4896976;29;20036;-83
2021/12/30 17:15:15;;;;;;;3.85;1.80;;;;;;;9.90;61.96;93113.28;4896143;29;20499;-82
2021/12/30 17:17:42;;;;;;;3.47;1.70;;;;;;;9.85;61.52;93111.47;4916466;29;20037;-82
2021/12/30 17:20:09;;;;;;;3.75;2.33;;;;;;;9.80;61.73;93117.50;4883722;29;20407;-78
2021/12/30 17:22:35;;;;;;;3.70;1.90;;;;;;;9.84;61.51;93130.03;4903005;29;20060;-79
2021/12/30 17:25:03;;;;;;;2.38;1.42;;;;;;;9.85;61.35;93115.94;4907545;29;20040;-79
2021/12/30 17:27:29;;;;;;;2.30;1.30;;;;;;;9.89;60.66;93122.19;4890964;29;20036;-79
2021/12/30 17:29:55;;;;;;;1.40;1.00;;;;;;;10.04;60.50;93127.34;4892475;29;20076;-78
2021/12/30 17:32:20;;;;;;;28.88;11.77;;;;;;;10.21;60.38;93127.84;4910047;29;20049;-79
2021/12/30 17:34:47;;;;;;;5.53;2.80;;;;;;;10.14;60.43;93134.41;4895905;29;20043;-79
2021/12/30 17:37:13;;;;;;;4.95;2.10;;;;;;;10.19;60.99;93135.16;4898743;29;20033;-79
2021/12/30 17:39:40;;;;;;;4.72;2.13;;;;;;;10.24;60.89;93144.81;4890883;29;20044;-78
2021/12/30 17:42:07;;;;;;;3.60;1.90;;;;;;;10.39;61.25;93146.66;4891140;29;20112;-79
2021/12/30 17:44:33;;;;;;;4.00;2.10;;;;;;;10.22;61.35;93152.16;4874039;29;20501;-79
2021/12/30 17:47:01;;;;;;;3.75;2.05;;;;;;;10.14;61.63;93160.56;4895896;29;20487;-78